Thunder radar more information blitzortung!


Radar de pluja more information rain snow radar


Visita la nostra xarxa de llocs de meteo:

Template documentation
and downloads

And another site



No particular awareness of the weather is required.    There are no Weather-warnings

Pagina Historial Weather Underground text

Diari Resum May 8, 2017 Unitats:  Mètric    Imperial   Tant
« Previous Dia
SegĂźent Dia »
Diari Setmana Mensual Anual Personalitzada
  Maxima: Minima: Media:
Temperatura: -17.8 °C -11.8 °C -7.9 °C
Punt de rosada: -17.8 °C -13.7 °C -12.2 °C
Humitat: Humidity % 48 % 62 %
Wind Speed: 0 km/h 0 km/h 10 km/h
RĂ fegues de vent: 0 km/h - -
Vent:- - SSE
Pression baro: 0 hPa 34361.1 hPa -
Precipitacions: 0 mm    
Historical Graphs
 
 
Dades de taula per May 8, 2017
Temps Temperatura Punt de rosada Pression baro Vent Wind Speed RĂ fegues de vent Humitat Rainfall Rate (Hourly)
-17.8 °C -17.8 °C 0 hPa Calm     Humidity % 0 mm
00:00 -10.1 °C -12.4 °C 34533.8 hPa NE 6.8 km/h 6.8 km/h 75 % 0 mm
00:05 -10.1 °C -12.4 °C 34533.8 hPa NE 9 km/h 9 km/h 75 % 0 mm
00:10 -11.7 °C -13.5 °C 34496.6 hPa SW 2.6 km/h 5.1 km/h 80 % 0 mm
00:20 -11.7 °C -13.4 °C 34496.6 hPa Calm   2.6 km/h 81 % 0 mm
00:30 -11.7 °C -13.4 °C 34496.6 hPa Calm     82 % 0 mm
00:40 -11.7 °C -13.4 °C 34496.6 hPa WNW 2.6 km/h 2.6 km/h 82 % 0 mm
00:50 -11.8 °C -13.4 °C 34462.7 hPa Calm     82 % 0 mm
01:00 -11.8 °C -13.3 °C 34462.7 hPa Calm   5.1 km/h 83 % 0 mm
01:10 -11.8 °C -13.4 °C 34462.7 hPa Calm   2.6 km/h 82 % 0 mm
01:20 -11.8 °C -13.4 °C 34496.6 hPa SW 2.6 km/h 2.6 km/h 82 % 0 mm
01:30 -11.8 °C -13.3 °C 34496.6 hPa Calm   2.6 km/h 83 % 0 mm
01:40 -11.8 °C -13.3 °C 34496.6 hPa Calm     83 % 0 mm
01:50 -11.8 °C -13.2 °C 34496.6 hPa Calm     84 % 0 mm
02:00 -11.7 °C -13.3 °C 34496.6 hPa Calm     83 % 0 mm
02:10 -11.7 °C -13.1 °C 34462.7 hPa Calm     84 % 0 mm
02:20 -11.6 °C -13.1 °C 34462.7 hPa SW 2.6 km/h 2.6 km/h 84 % 0 mm
02:30 -11.5 °C -12.9 °C 34462.7 hPa Calm   2.6 km/h 84 % 0 mm
02:40 -11.1 °C -12.4 °C 34496.6 hPa Calm     85 % 0 mm
02:50 -10.9 °C -12.5 °C 34462.7 hPa Calm     83 % 0 mm
03:00 -10.6 °C -12.1 °C 34462.7 hPa ESE 2.6 km/h 2.6 km/h 83 % 0 mm
03:10 -10.6 °C -12.4 °C 34496.6 hPa SSE 2.6 km/h 5.1 km/h 81 % 0 mm
03:20 -10.5 °C -12.4 °C 34496.6 hPa South 2.6 km/h 5.1 km/h 80 % 0 mm
03:30 -10.5 °C -12.4 °C 34496.6 hPa SSW 5.1 km/h 5.1 km/h 80 % 0 mm
03:40 -10.3 °C -12.2 °C 34496.6 hPa WSW 2.6 km/h 5.1 km/h 80 % 0 mm
03:50 -9.9 °C -11.9 °C 34496.6 hPa North 2.6 km/h 7.7 km/h 79 % 0 mm
04:00 -9.9 °C -12.1 °C 34496.6 hPa NE 7.7 km/h 10.3 km/h 78 % 0 mm
04:10 -9.8 °C -12 °C 34496.6 hPa NE 5.1 km/h 12.9 km/h 77 % 0 mm
04:20 -9.8 °C -12.3 °C 34496.6 hPa NE 15.6 km/h 15.6 km/h 75 % 0 mm
04:30 -9.8 °C -12.2 °C 34496.6 hPa ENE 12.9 km/h 15.6 km/h 75 % 0 mm
04:40 -9.8 °C -12.3 °C 34496.6 hPa NE 7.7 km/h 20.8 km/h 75 % 0 mm
04:50 -9.5 °C -12.1 °C 34496.6 hPa ENE 7.7 km/h 10.3 km/h 74 % 0 mm
05:00 -9.2 °C -11.8 °C 34496.6 hPa NE 7.7 km/h 10.3 km/h 73 % 0 mm
05:10 -9.2 °C -11.8 °C 34496.6 hPa NE 12.9 km/h 12.9 km/h 73 % 0 mm
10:16 -9.1 °C -12 °C 34496.6 hPa NE 11.9 km/h 11.9 km/h 71 % 0 mm
10:21 -9.1 °C -12.1 °C 34496.6 hPa NNE 11.9 km/h 11.9 km/h 70 % 0 mm
10:26 -8.7 °C -11.6 °C 34496.6 hPa West 9 km/h 9 km/h 71 % 0 mm
10:31 -8.3 °C -11.5 °C 34496.6 hPa NE 9.3 km/h 9.3 km/h 69 % 0 mm
10:36 -8.2 °C -11.6 °C 34496.6 hPa NW 9 km/h 9 km/h 68 % 0 mm
10:41 -8.2 °C -11.6 °C 34496.6 hPa ENE 9.8 km/h 9.8 km/h 67 % 0 mm
10:46 -8.3 °C -11.7 °C 34496.6 hPa North 11.9 km/h 11.9 km/h 67 % 0 mm
10:47 -8.3 °C -11.7 °C 34496.6 hPa WNW 11.9 km/h 11.9 km/h 67 % 0 mm
10:52 -8.2 °C -11.7 °C 34496.6 hPa NNE 12.2 km/h 12.2 km/h 66 % 0 mm
10:57 -8.1 °C -11.7 °C 34496.6 hPa NW 9 km/h 9 km/h 66 % 0 mm
11:02 -7.9 °C -11.6 °C 34496.6 hPa NW 9 km/h 9 km/h 65 % 0 mm
11:07 -7.6 °C -11.2 °C 34496.6 hPa NW 6 km/h 6 km/h 66 % 0 mm
11:12 -7.6 °C -11.6 °C 34496.6 hPa East 17.9 km/h 17.9 km/h 63 % 0 mm
11:17 -7.6 °C -11.4 °C 34496.6 hPa ENE 11.9 km/h 11.9 km/h 64 % 0 mm
11:22 -7.4 °C -11.4 °C 34496.6 hPa ENE 11.9 km/h 11.9 km/h 63 % 0 mm
11:27 -7.3 °C -11.3 °C 34496.6 hPa ENE 11.9 km/h 11.9 km/h 63 % 0 mm
11:32 -7.4 °C -11.5 °C 34496.6 hPa ESE 11.9 km/h 11.9 km/h 62 % 0 mm
11:37 -7.2 °C -11.5 °C 34496.6 hPa NE 9 km/h 9 km/h 61 % 0 mm
11:42 -7.1 °C -11.3 °C 34496.6 hPa SSW 9 km/h 9 km/h 61 % 0 mm
11:47 -6.6 °C -11 °C 34496.6 hPa SW 9 km/h 9 km/h 60 % 0 mm
11:52 -6.7 °C -11.4 °C 34496.6 hPa SW 6 km/h 6 km/h 58 % 0 mm
11:57 -6.6 °C -11.2 °C 34496.6 hPa West 8.5 km/h 8.5 km/h 59 % 0 mm
12:02 -6.4 °C -11.2 °C 34496.6 hPa SW 9 km/h 9 km/h 58 % 0 mm
12:07 -6.1 °C -11 °C 34496.6 hPa WSW 6 km/h 6.3 km/h 57 % 0 mm
12:12 -6.3 °C -11.2 °C 34462.7 hPa SW 11.9 km/h 11.9 km/h 57 % 0 mm
12:17 -6.1 °C -11 °C 34462.7 hPa NNW 6.8 km/h 6.8 km/h 57 % 0 mm
12:22 -5.8 °C -11.1 °C 34462.7 hPa ENE 8.5 km/h 8.5 km/h 55 % 0 mm
12:23 -5.9 °C -11.2 °C 34462.7 hPa SE 12.7 km/h 12.7 km/h 55 % 0 mm
12:28 -6.2 °C -11.4 °C 34462.7 hPa NE 9 km/h 9 km/h 55 % 0 mm
12:33 -5.8 °C -11.3 °C 34462.7 hPa SE 17.9 km/h 17.9 km/h 53 % 0 mm
12:38 -5.7 °C -11.2 °C 34462.7 hPa ESE 9 km/h 9 km/h 53 % 0 mm
12:43 -5.7 °C -10.9 °C 34428.8 hPa West 9 km/h 9 km/h 55 % 0 mm
12:48 -5.7 °C -11.1 °C 34428.8 hPa South 9 km/h 9 km/h 54 % 0 mm
12:53 -5.5 °C -11.2 °C 34428.8 hPa South 9 km/h 9 km/h 52 % 0 mm
12:58 -5.8 °C -11.7 °C 34462.7 hPa ESE 17.9 km/h 17.9 km/h 51 % 0 mm
13:03 -6 °C -11.8 °C 34462.7 hPa ESE 14.5 km/h 14.5 km/h 51 % 0 mm
13:08 -6.1 °C -11.9 °C 34462.7 hPa NE 15 km/h 15 km/h 51 % 0 mm
13:13 -5.7 °C -11.6 °C 34462.7 hPa SSE 9.8 km/h 9.8 km/h 51 % 0 mm
13:18 -5.2 °C -11.1 °C 34462.7 hPa SSE 11.9 km/h 11.9 km/h 51 % 0 mm
13:23 -5 °C -11.3 °C 34462.7 hPa South 7.6 km/h 7.6 km/h 49 % 0 mm
13:28 -5.6 °C -11.8 °C 34462.7 hPa South 15 km/h 15 km/h 49 % 0 mm
13:33 -5.4 °C -11.7 °C 34462.7 hPa SE 11.9 km/h 11.9 km/h 49 % 0 mm
13:38 -5.3 °C -11.4 °C 34462.7 hPa SW 3.1 km/h   50 % 0 mm
13:43 -4.8 °C -11.2 °C 34428.8 hPa South 6 km/h 6 km/h 48 % 0 mm
13:48 -4.6 °C -11.1 °C 34428.8 hPa ESE 9.3 km/h 9.3 km/h 48 % 0 mm
13:53 -5.1 °C -11.5 °C 34428.8 hPa ESE 11.1 km/h 11.1 km/h 48 % 0 mm
13:58 -4.9 °C -11.4 °C 34428.8 hPa ESE 12.7 km/h 12.7 km/h 48 % 0 mm
14:03 -5.4 °C -11.5 °C 34428.8 hPa ESE 15.6 km/h 15.6 km/h 50 % 0 mm
14:08 -5.5 °C -11.4 °C 34428.8 hPa ENE 23.8 km/h 23.8 km/h 51 % 0 mm
14:13 -5.6 °C -11.5 °C 34395 hPa ESE 22 km/h 22 km/h 51 % 0 mm
14:18 -5.7 °C -11.4 °C 34395 hPa ESE 11.9 km/h 11.9 km/h 52 % 0 mm
14:23 -5.4 °C -11 °C 34395 hPa ENE 17.4 km/h 17.4 km/h 53 % 0 mm
14:28 -5.7 °C -11.3 °C 34395 hPa ESE 23.8 km/h 23.8 km/h 53 % 0 mm
14:33 -5.7 °C -11.3 °C 34395 hPa ESE 6 km/h 6 km/h 53 % 0 mm
14:38 -5.7 °C -11.2 °C 34395 hPa SE 23.8 km/h 23.8 km/h 53 % 0 mm
14:43 -5.6 °C -11 °C 34361.1 hPa ESE 20.9 km/h 20.9 km/h 54 % 0 mm
14:48 -5.6 °C -10.9 °C 34361.1 hPa ENE 19.6 km/h 19.6 km/h 54 % 0 mm
14:53 -5.6 °C -10.9 °C 34361.1 hPa SE 26.9 km/h 26.9 km/h 55 % 0 mm
14:58 -5.7 °C -10.9 °C 34395 hPa East 26.9 km/h 26.9 km/h 55 % 0 mm
15:03 -5.7 °C -10.9 °C 34395 hPa ESE 20.9 km/h 20.9 km/h 55 % 0 mm
15:08 -5.8 °C -11 °C 34395 hPa NE 26.9 km/h 26.9 km/h 55 % 0 mm
15:13 -5.6 °C -10.9 °C 34395 hPa ENE 22.5 km/h 22.5 km/h 55 % 0 mm
15:18 -5.4 °C -10.7 °C 34395 hPa East 23.8 km/h 23.8 km/h 55 % 0 mm
15:23 -5.6 °C -10.6 °C 34395 hPa NE 26.9 km/h 26.9 km/h 57 % 0 mm
15:28 -5.7 °C -10.7 °C 34395 hPa West 17.9 km/h 17.9 km/h 57 % 0 mm
15:33 -5.8 °C -10.8 °C 34395 hPa NNE 27.2 km/h 27.2 km/h 57 % 0 mm
15:38 -5.8 °C -10.7 °C 34395 hPa SSE 26.9 km/h 26.9 km/h 57 % 0 mm
15:43 -5.8 °C -10.8 °C 34361.1 hPa ENE 26.9 km/h 26.9 km/h 57 % 0 mm
15:48 -5.9 °C -10.9 °C 34361.1 hPa SE 26.9 km/h 26.9 km/h 57 % 0 mm
15:53 -6 °C -10.8 °C 34361.1 hPa ENE 20.9 km/h 20.9 km/h 58 % 0 mm
15:58 -5.9 °C -10.8 °C 34395 hPa ESE 20.9 km/h 20.9 km/h 57 % 0 mm
16:00 -5.9 °C -10.8 °C 34395 hPa SE 32.3 km/h 32.3 km/h 57 % 0 mm
16:05 -6 °C -10.9 °C 34395 hPa NNE 20.9 km/h 20.9 km/h 57 % 0 mm
16:10 -6 °C -10.9 °C 34395 hPa East 17.9 km/h 17.9 km/h 57 % 0 mm
16:15 -5.7 °C -10.7 °C 34395 hPa SE 15 km/h 15 km/h 57 % 0 mm
16:20 -5.8 °C -10.7 °C 34395 hPa SE 12.7 km/h 12.7 km/h 57 % 0 mm
16:25 -5.8 °C -10.8 °C 34395 hPa ESE 26.9 km/h 26.9 km/h 57 % 0 mm
16:30 -5.9 °C -10.9 °C 34395 hPa ENE 23.8 km/h 23.8 km/h 57 % 0 mm
16:35 -6 °C -10.9 °C 34395 hPa East 15 km/h 15 km/h 57 % 0 mm
16:40 -6.1 °C -11 °C 34395 hPa ESE 17.9 km/h 17.9 km/h 57 % 0 mm
16:45 -6.1 °C -11 °C 34361.1 hPa ENE 17.9 km/h 17.9 km/h 57 % 0 mm
16:50 -6.1 °C -11 °C 34361.1 hPa NNE 17.9 km/h 17.9 km/h 57 % 0 mm
16:55 -6.2 °C -11 °C 34361.1 hPa East 17.9 km/h 17.9 km/h 58 % 0 mm
17:00 -6.2 °C -11 °C 34361.1 hPa East 15 km/h 15 km/h 58 % 0 mm
17:05 -6.3 °C -11.1 °C 34361.1 hPa ESE 17.9 km/h 17.9 km/h 58 % 0 mm
17:10 -6.5 °C -11.2 °C 34361.1 hPa NNW 23.8 km/h 23.8 km/h 58 % 0 mm
17:15 -6.5 °C -11.1 °C 34361.1 hPa ESE 29.8 km/h 29.8 km/h 59 % 0 mm
17:21 -6.4 °C -11.1 °C 34361.1 hPa East 15 km/h 15 km/h 59 % 0 mm
17:26 -6.4 °C -11 °C 34361.1 hPa ESE 20.9 km/h 20.9 km/h 59 % 0 mm
17:31 -6.4 °C -11.1 °C 34361.1 hPa ENE 23.8 km/h 23.8 km/h 59 % 0 mm
17:36 -6.4 °C -11.1 °C 34361.1 hPa ESE 15 km/h 15 km/h 59 % 0 mm
17:41 -6.4 °C -11.1 °C 34361.1 hPa ENE 20.9 km/h 20.9 km/h 59 % 0 mm
17:46 -6.6 °C -11.2 °C 34361.1 hPa ESE 20.9 km/h 20.9 km/h 59 % 0 mm
17:51 -6.6 °C -11.2 °C 34361.1 hPa ENE 20.9 km/h 20.9 km/h 59 % 0 mm
17:56 -6.7 °C -11.2 °C 34361.1 hPa ENE 15 km/h 15 km/h 60 % 0 mm
18:02 -6.7 °C -11.3 °C 34361.1 hPa North 17.9 km/h 17.9 km/h 59 % 0 mm
18:07 -6.8 °C -11.2 °C 34361.1 hPa ESE 15 km/h 15 km/h 60 % 0 mm
18:12 -6.7 °C -11.3 °C 34361.1 hPa ESE 17.9 km/h 17.9 km/h 59 % 0 mm
18:17 -6.7 °C -11.4 °C 34361.1 hPa ESE 23.8 km/h 23.8 km/h 58 % 0 mm
18:22 -6.7 °C -11.4 °C 34361.1 hPa East 15 km/h 15 km/h 58 % 0 mm
18:27 -6.7 °C -11.3 °C 34361.1 hPa ESE 25.9 km/h 25.9 km/h 59 % 0 mm
18:32 -6.8 °C -11.3 °C 34361.1 hPa SSE 20.9 km/h 20.9 km/h 59 % 0 mm
18:37 -6.8 °C -11.3 °C 34361.1 hPa East 15 km/h 15 km/h 59 % 0 mm
18:42 -6.9 °C -11.6 °C 34361.1 hPa East 15 km/h 15 km/h 58 % 0 mm
18:47 -6.9 °C -11.7 °C 34361.1 hPa ESE 15 km/h 15 km/h 58 % 0 mm
18:52 -6.9 °C -11.7 °C 34361.1 hPa SSE 15 km/h 15 km/h 58 % 0 mm
18:57 -6.9 °C -11.5 °C 34361.1 hPa SSE 9 km/h 9 km/h 59 % 0 mm
19:02 -6.9 °C -11.7 °C 34361.1 hPa ESE 9.3 km/h 9.3 km/h 58 % 0 mm
19:07 -7 °C -11.7 °C 34361.1 hPa WSW 9 km/h 9 km/h 58 % 0 mm
19:12 -6.9 °C -11.8 °C 34361.1 hPa SW 9 km/h 9 km/h 57 % 0 mm
19:17 -6.9 °C -11.9 °C 34361.1 hPa SSW 6 km/h 6 km/h 56 % 0 mm
19:20 -9.8 °C -13.4 °C 34395 hPa Calm     65 % 0 mm
19:22 -7 °C -12 °C 34361.1 hPa WNW 3.1 km/h   56 % 0 mm
19:27 -7.1 °C -12.1 °C 34361.1 hPa SW 3.1 km/h   56 % 0 mm
19:30 -9.8 °C -13.4 °C 34395 hPa Calm     65 % 0 mm
19:32 -7.1 °C -12.2 °C 34361.1 hPa West 6 km/h 6 km/h 55 % 0 mm
19:37 -7.1 °C -12.3 °C 34361.1 hPa WSW 6 km/h 6 km/h 55 % 0 mm
19:40 -9.9 °C -13.4 °C 34395 hPa Calm     66 % 0 mm
19:42 -7.1 °C -12.3 °C 34361.1 hPa South 11.9 km/h 11.9 km/h 55 % 0 mm
19:47 -7.2 °C -12.4 °C 34361.1 hPa SW 9 km/h 9 km/h 54 % 0 mm
19:50 -10.1 °C -13.5 °C 34395 hPa Calm     66 % 0 mm
19:52 -7.3 °C -12.6 °C 34361.1 hPa WSW 16.6 km/h 16.6 km/h 54 % 0 mm
19:57 -7.4 °C -12.7 °C 34361.1 hPa SW 15 km/h 15 km/h 54 % 0 mm
20:00 -10.2 °C -13.5 °C 34395 hPa Calm     67 % 0 mm
20:02 -7.6 °C -13 °C 34361.1 hPa West 11.9 km/h 11.9 km/h 53 % 0 mm
20:08 -7.7 °C -13.1 °C 34361.1 hPa SW 11.9 km/h 11.9 km/h 53 % 0 mm
20:10 -10.2 °C -13.6 °C 34395 hPa Calm     67 % 0 mm
20:13 -7.8 °C -13.2 °C 34395 hPa West 9 km/h 9 km/h 53 % 0 mm
20:18 -7.8 °C -13.2 °C 34395 hPa SW 9 km/h 9 km/h 53 % 0 mm
20:20 -10.2 °C -13.4 °C 34395 hPa Calm     68 % 0 mm
20:23 -7.9 °C -13.3 °C 34395 hPa West 6 km/h 6 km/h 53 % 0 mm
20:28 -7.9 °C -13.3 °C 34395 hPa SW 9 km/h 9 km/h 53 % 0 mm
20:30 -10.3 °C -13.4 °C 34395 hPa Calm     69 % 0 mm
20:33 -8.1 °C -13.4 °C 34395 hPa SW 9.3 km/h 9.3 km/h 53 % 0 mm
20:38 -8.1 °C -13.5 °C 34395 hPa SW 9 km/h 9 km/h 53 % 0 mm
20:40 -10.3 °C -13.4 °C 34395 hPa Calm     69 % 0 mm
20:43 -8.2 °C -13.6 °C 34395 hPa SW 9 km/h 9 km/h 53 % 0 mm
20:48 -8.3 °C -13.5 °C 34395 hPa WSW 11.9 km/h 11.9 km/h 54 % 0 mm
20:50 -10.4 °C -13.6 °C 34395 hPa NE 2.6 km/h 5.1 km/h 69 % 0 mm
20:53 -8.3 °C -13.6 °C 34395 hPa WSW 9 km/h 9 km/h 54 % 0 mm
20:58 -8.4 °C -13.4 °C 34395 hPa WSW 15 km/h 15 km/h 55 % 0 mm
21:00 -10.5 °C -13.6 °C 34395 hPa NE 2.6 km/h 5.1 km/h 69 % 0 mm
21:03 -8.4 °C -13.5 °C 34395 hPa WSW 11.9 km/h 11.9 km/h 55 % 0 mm
21:08 -8.5 °C -13.6 °C 34395 hPa SW 9 km/h 9 km/h 55 % 0 mm
21:10 -10.6 °C -13.5 °C 34395 hPa Calm   2.6 km/h 70 % 0 mm
21:13 -8.6 °C -13.4 °C 34395 hPa SW 5.1 km/h 5.1 km/h 56 % 0 mm
21:18 -8.6 °C -13.4 °C 34395 hPa SW 6.3 km/h 6.3 km/h 56 % 0 mm
21:20 -10.7 °C -13.7 °C 34361.1 hPa NNE 2.6 km/h 5.1 km/h 70 % 0 mm
21:23 -8.6 °C -13.4 °C 34395 hPa West 6 km/h 6 km/h 57 % 0 mm
21:28 -8.7 °C -13.4 °C 34395 hPa WSW 6 km/h 6 km/h 57 % 0 mm
21:30 -10.8 °C -13.6 °C 34361.1 hPa NE 2.6 km/h 2.6 km/h 71 % 0 mm
21:34 -8.7 °C -13.4 °C 34395 hPa WSW 6.3 km/h 6.3 km/h 57 % 0 mm
21:39 -8.7 °C -13.3 °C 34395 hPa SW 7.6 km/h 7.6 km/h 58 % 0 mm
21:40 -10.8 °C -13.7 °C 34361.1 hPa Calm   2.6 km/h 71 % 0 mm
21:44 -8.8 °C -13.4 °C 34395 hPa WSW 6.3 km/h 6.3 km/h 58 % 0 mm
21:49 -8.8 °C -13.2 °C 34395 hPa West 3.1 km/h 3.1 km/h 59 % 0 mm
21:50 -8.8 °C -13.2 °C 34395 hPa West 3.1 km/h   59 % 0 mm
21:55 -8.8 °C -13.3 °C 34395 hPa WSW 6 km/h 6 km/h 59 % 0 mm
22:00 -8.9 °C -13.3 °C 34361.1 hPa West 4.2 km/h 4.2 km/h 59 % 0 mm
22:05 -8.9 °C -13.2 °C 34361.1 hPa WSW 3.1 km/h   60 % 0 mm
22:10 -8.9 °C -13.2 °C 34361.1 hPa Calm     60 % 0 mm
22:15 -8.9 °C -13.2 °C 34395 hPa Calm     60 % 0 mm
22:20 -8.9 °C -13.1 °C 34395 hPa Calm     61 % 0 mm
22:25 -9 °C -13.2 °C 34395 hPa Calm     61 % 0 mm
22:30 -9.1 °C -13.2 °C 34395 hPa Calm     61 % 0 mm
22:35 -9.1 °C -13.3 °C 34395 hPa Calm     61 % 0 mm
22:40 -9.1 °C -13.3 °C 34395 hPa Calm     61 % 0 mm
22:45 -9.2 °C -13.2 °C 34395 hPa Calm     62 % 0 mm
22:50 -9.3 °C -13.3 °C 34395 hPa Calm     62 % 0 mm
22:55 -9.3 °C -13.3 °C 34395 hPa Calm     62 % 0 mm
23:00 -9.3 °C -13.4 °C 34361.1 hPa Calm     62 % 0 mm
23:05 -9.3 °C -13.2 °C 34361.1 hPa Calm     63 % 0 mm
23:10 -9.4 °C -13.3 °C 34361.1 hPa Calm     63 % 0 mm
23:15 -9.4 °C -13.3 °C 34395 hPa Calm     63 % 0 mm
23:20 -9.4 °C -13.2 °C 34395 hPa Calm     64 % 0 mm
23:25 -9.4 °C -13.2 °C 34395 hPa Calm     64 % 0 mm
23:30 -9.4 °C -13.2 °C 34395 hPa Calm     64 % 0 mm
23:35 -9.5 °C -13.2 °C 34395 hPa Calm     64 % 0 mm
23:40 -9.6 °C -13.4 °C 34395 hPa Calm     64 % 0 mm
23:45 -9.6 °C -13.4 °C 34361.1 hPa Calm     64 % 0 mm
23:50 -9.7 °C -13.4 °C 34361.1 hPa Calm     64 % 0 mm
23:55 -9.7 °C -13.4 °C 34361.1 hPa Calm     64 % 0 mm
Meteo Sesrovires
Elogis d' Weather Underground - 2 mb

Guio original per  Jim McMurry - jmcmurry@mwt.net Adaptat per a la plantilla per  Wim van der Kuil - Leuven-Template.eu

Trobareu la nostra informacio del temps tambe a:

Weather Underground

AWEKAS